sensor_id;sensor_type;location;lat;lon;timestamp;temperature;humidity
16267;DHT22;8241;48.786;9.250;2023-10-31T01:04:59;12.20;99.90
16267;DHT22;8241;48.786;9.250;2023-10-31T01:07:26;12.40;99.90
16267;DHT22;8241;48.786;9.250;2023-10-31T01:09:53;12.40;99.90
16267;DHT22;8241;48.786;9.250;2023-10-31T01:12:19;12.40;99.90
16267;DHT22;8241;48.786;9.250;2023-10-31T01:19:49;12.20;99.90
16267;DHT22;8241;48.786;9.250;2023-10-31T01:22:15;12.30;99.90
16267;DHT22;8241;48.786;9.250;2023-10-31T01:24:48;12.20;99.90
16267;DHT22;8241;48.786;9.250;2023-10-31T01:27:15;12.20;99.90
16267;DHT22;8241;48.786;9.250;2023-10-31T01:29:42;12.10;99.90
16267;DHT22;8241;48.786;9.250;2023-10-31T01:32:10;12.10;99.90
16267;DHT22;8241;48.786;9.250;2023-10-31T01:34:37;12.00;99.90
16267;DHT22;8241;48.786;9.250;2023-10-31T01:37:04;12.00;99.90
16267;DHT22;8241;48.786;9.250;2023-10-31T01:39:33;11.80;99.90
16267;DHT22;8241;48.786;9.250;2023-10-31T01:46:59;11.80;99.90
16267;DHT22;8241;48.786;9.250;2023-10-31T01:49:27;11.90;99.90
16267;DHT22;8241;48.786;9.250;2023-10-31T01:51:53;11.80;99.90
16267;DHT22;8241;48.786;9.250;2023-10-31T01:54:21;11.80;99.90
16267;DHT22;8241;48.786;9.250;2023-10-31T01:56:48;11.80;99.90
16267;DHT22;8241;48.786;9.250;2023-10-31T01:59:16;11.80;99.90
16267;DHT22;8241;48.786;9.250;2023-10-31T02:01:44;11.80;99.90
16267;DHT22;8241;48.786;9.250;2023-10-31T02:04:10;11.80;99.90
16267;DHT22;8241;48.786;9.250;2023-10-31T02:06:39;11.80;99.90
16267;DHT22;8241;48.786;9.250;2023-10-31T02:09:06;11.80;99.90
16267;DHT22;8241;48.786;9.250;2023-10-31T02:11:33;11.80;99.90
16267;DHT22;8241;48.786;9.250;2023-10-31T02:14:01;11.80;99.90
16267;DHT22;8241;48.786;9.250;2023-10-31T02:16:27;11.80;99.90
16267;DHT22;8241;48.786;9.250;2023-10-31T02:18:54;11.70;99.90
16267;DHT22;8241;48.786;9.250;2023-10-31T02:21:21;11.70;99.90
16267;DHT22;8241;48.786;9.250;2023-10-31T02:24:06;11.80;99.90
16267;DHT22;8241;48.786;9.250;2023-10-31T02:26:34;11.80;99.90
16267;DHT22;8241;48.786;9.250;2023-10-31T02:29:01;11.70;99.90
16267;DHT22;8241;48.786;9.250;2023-10-31T02:31:29;11.70;99.90
16267;DHT22;8241;48.786;9.250;2023-10-31T02:34:02;11.70;99.90
16267;DHT22;8241;48.786;9.250;2023-10-31T02:36:28;11.70;99.90
16267;DHT22;8241;48.786;9.250;2023-10-31T02:38:55;11.60;99.90
16267;DHT22;8241;48.786;9.250;2023-10-31T02:41:23;11.60;99.90
16267;DHT22;8241;48.786;9.250;2023-10-31T02:43:50;11.60;99.90
16267;DHT22;8241;48.786;9.250;2023-10-31T02:46:20;11.60;99.90
16267;DHT22;8241;48.786;9.250;2023-10-31T02:48:47;11.60;99.90
16267;DHT22;8241;48.786;9.250;2023-10-31T02:51:14;11.60;99.90
16267;DHT22;8241;48.786;9.250;2023-10-31T02:53:41;11.50;99.90
16267;DHT22;8241;48.786;9.250;2023-10-31T02:56:08;11.40;99.90
16267;DHT22;8241;48.786;9.250;2023-10-31T02:58:36;11.40;99.90
16267;DHT22;8241;48.786;9.250;2023-10-31T03:01:03;11.30;99.90
16267;DHT22;8241;48.786;9.250;2023-10-31T03:03:31;11.20;99.90
16267;DHT22;8241;48.786;9.250;2023-10-31T03:05:59;11.30;99.90
16267;DHT22;8241;48.786;9.250;2023-10-31T03:08:26;11.30;99.90
16267;DHT22;8241;48.786;9.250;2023-10-31T03:10:53;11.20;99.90
16267;DHT22;8241;48.786;9.250;2023-10-31T03:13:20;11.20;99.90
16267;DHT22;8241;48.786;9.250;2023-10-31T03:15:50;11.30;99.90
16267;DHT22;8241;48.786;9.250;2023-10-31T03:18:17;11.30;99.90
16267;DHT22;8241;48.786;9.250;2023-10-31T03:20:44;11.40;99.90
16267;DHT22;8241;48.786;9.250;2023-10-31T03:23:12;11.40;99.90
16267;DHT22;8241;48.786;9.250;2023-10-31T03:25:39;11.40;99.90
16267;DHT22;8241;48.786;9.250;2023-10-31T03:28:17;11.40;99.90
16267;DHT22;8241;48.786;9.250;2023-10-31T03:30:44;11.50;99.90
16267;DHT22;8241;48.786;9.250;2023-10-31T03:33:14;11.40;99.90
16267;DHT22;8241;48.786;9.250;2023-10-31T03:35:47;11.40;99.90
16267;DHT22;8241;48.786;9.250;2023-10-31T03:38:14;11.40;99.90
16267;DHT22;8241;48.786;9.250;2023-10-31T03:40:41;11.40;99.90
16267;DHT22;8241;48.786;9.250;2023-10-31T03:43:07;11.40;99.90
16267;DHT22;8241;48.786;9.250;2023-10-31T03:45:37;11.40;99.90
16267;DHT22;8241;48.786;9.250;2023-10-31T03:48:04;11.30;99.90
16267;DHT22;8241;48.786;9.250;2023-10-31T03:50:32;11.30;99.90
16267;DHT22;8241;48.786;9.250;2023-10-31T03:52:59;11.30;99.90
16267;DHT22;8241;48.786;9.250;2023-10-31T03:55:26;11.30;99.90
16267;DHT22;8241;48.786;9.250;2023-10-31T03:57:53;11.30;99.90
16267;DHT22;8241;48.786;9.250;2023-10-31T04:00:20;11.30;99.90
16267;DHT22;8241;48.786;9.250;2023-10-31T04:02:47;11.30;99.90
16267;DHT22;8241;48.786;9.250;2023-10-31T04:05:14;11.30;99.90
16267;DHT22;8241;48.786;9.250;2023-10-31T04:07:43;11.30;99.90
16267;DHT22;8241;48.786;9.250;2023-10-31T04:10:10;11.20;99.90
16267;DHT22;8241;48.786;9.250;2023-10-31T04:12:37;11.20;99.90
16267;DHT22;8241;48.786;9.250;2023-10-31T04:15:05;11.20;99.90
16267;DHT22;8241;48.786;9.250;2023-10-31T04:17:32;11.10;99.90
16267;DHT22;8241;48.786;9.250;2023-10-31T04:19:58;11.10;99.90
16267;DHT22;8241;48.786;9.250;2023-10-31T04:22:25;11.00;99.90
16267;DHT22;8241;48.786;9.250;2023-10-31T04:24:53;11.00;99.90
16267;DHT22;8241;48.786;9.250;2023-10-31T04:27:20;11.00;99.90
16267;DHT22;8241;48.786;9.250;2023-10-31T04:29:47;11.00;99.90
16267;DHT22;8241;48.786;9.250;2023-10-31T04:32:14;11.00;99.90
16267;DHT22;8241;48.786;9.250;2023-10-31T04:34:41;11.00;99.90
16267;DHT22;8241;48.786;9.250;2023-10-31T04:37:08;10.80;99.90
16267;DHT22;8241;48.786;9.250;2023-10-31T05:19:25;11.20;99.90
16267;DHT22;8241;48.786;9.250;2023-10-31T05:21:52;11.00;99.90
16267;DHT22;8241;48.786;9.250;2023-10-31T05:24:19;10.90;99.90
16267;DHT22;8241;48.786;9.250;2023-10-31T05:26:46;10.80;99.90
16267;DHT22;8241;48.786;9.250;2023-10-31T05:29:13;10.80;99.90
16267;DHT22;8241;48.786;9.250;2023-10-31T05:31:41;10.80;99.90
16267;DHT22;8241;48.786;9.250;2023-10-31T05:34:08;10.80;99.90
16267;DHT22;8241;48.786;9.250;2023-10-31T05:36:35;10.80;99.90
16267;DHT22;8241;48.786;9.250;2023-10-31T05:39:03;10.80;99.90
16267;DHT22;8241;48.786;9.250;2023-10-31T05:44:00;11.00;99.90
16267;DHT22;8241;48.786;9.250;2023-10-31T05:46:27;10.80;99.90
16267;DHT22;8241;48.786;9.250;2023-10-31T06:06:20;10.60;99.90
16267;DHT22;8241;48.786;9.250;2023-10-31T06:08:47;10.80;99.90
16267;DHT22;8241;48.786;9.250;2023-10-31T06:11:14;10.70;99.90
16267;DHT22;8241;48.786;9.250;2023-10-31T06:13:41;10.70;99.90
16267;DHT22;8241;48.786;9.250;2023-10-31T06:16:08;10.70;99.90
16267;DHT22;8241;48.786;9.250;2023-10-31T06:18:35;10.70;99.90
16267;DHT22;8241;48.786;9.250;2023-10-31T06:21:04;10.70;99.90
16267;DHT22;8241;48.786;9.250;2023-10-31T06:23:32;10.70;99.90
16267;DHT22;8241;48.786;9.250;2023-10-31T06:25:59;10.80;99.90
16267;DHT22;8241;48.786;9.250;2023-10-31T06:28:26;10.80;99.90
16267;DHT22;8241;48.786;9.250;2023-10-31T06:30:53;10.80;99.90
16267;DHT22;8241;48.786;9.250;2023-10-31T06:33:19;10.80;99.90
16267;DHT22;8241;48.786;9.250;2023-10-31T06:35:46;10.80;99.90
16267;DHT22;8241;48.786;9.250;2023-10-31T06:38:13;10.90;99.90
16267;DHT22;8241;48.786;9.250;2023-10-31T06:40:41;10.90;99.90
16267;DHT22;8241;48.786;9.250;2023-10-31T06:43:08;10.80;99.90
16267;DHT22;8241;48.786;9.250;2023-10-31T06:52:58;10.70;99.90
16267;DHT22;8241;48.786;9.250;2023-10-31T06:55:25;10.70;99.90
16267;DHT22;8241;48.786;9.250;2023-10-31T06:57:53;10.70;99.90
16267;DHT22;8241;48.786;9.250;2023-10-31T07:00:20;10.70;99.90
16267;DHT22;8241;48.786;9.250;2023-10-31T07:02:47;10.80;99.90
16267;DHT22;8241;48.786;9.250;2023-10-31T07:05:20;10.90;99.90
16267;DHT22;8241;48.786;9.250;2023-10-31T07:07:47;10.90;99.90
16267;DHT22;8241;48.786;9.250;2023-10-31T07:10:14;10.80;99.90
16267;DHT22;8241;48.786;9.250;2023-10-31T07:12:41;10.80;99.90
16267;DHT22;8241;48.786;9.250;2023-10-31T07:15:18;10.90;99.90
16267;DHT22;8241;48.786;9.250;2023-10-31T07:17:48;10.90;99.90
16267;DHT22;8241;48.786;9.250;2023-10-31T07:20:15;10.80;99.90
16267;DHT22;8241;48.786;9.250;2023-10-31T07:22:42;10.90;99.90
16267;DHT22;8241;48.786;9.250;2023-10-31T07:25:09;10.80;99.90
16267;DHT22;8241;48.786;9.250;2023-10-31T07:27:36;10.80;99.90
16267;DHT22;8241;48.786;9.250;2023-10-31T07:30:04;10.80;99.90
16267;DHT22;8241;48.786;9.250;2023-10-31T07:32:33;10.80;99.90
16267;DHT22;8241;48.786;9.250;2023-10-31T07:34:59;10.90;99.90
16267;DHT22;8241;48.786;9.250;2023-10-31T07:37:26;10.90;99.90
16267;DHT22;8241;48.786;9.250;2023-10-31T07:39:53;10.90;99.90
16267;DHT22;8241;48.786;9.250;2023-10-31T07:42:20;11.00;99.90
16267;DHT22;8241;48.786;9.250;2023-10-31T07:44:47;11.00;99.90
16267;DHT22;8241;48.786;9.250;2023-10-31T07:47:16;11.00;99.90
16267;DHT22;8241;48.786;9.250;2023-10-31T07:49:46;11.00;99.90
16267;DHT22;8241;48.786;9.250;2023-10-31T07:52:13;11.10;99.90
16267;DHT22;8241;48.786;9.250;2023-10-31T07:54:41;11.20;99.90
16267;DHT22;8241;48.786;9.250;2023-10-31T07:57:08;11.20;99.90
16267;DHT22;8241;48.786;9.250;2023-10-31T07:59:35;11.20;99.90
16267;DHT22;8241;48.786;9.250;2023-10-31T08:02:02;11.20;99.90
16267;DHT22;8241;48.786;9.250;2023-10-31T08:04:29;11.30;99.90
16267;DHT22;8241;48.786;9.250;2023-10-31T08:06:58;11.30;99.90
16267;DHT22;8241;48.786;9.250;2023-10-31T08:09:24;11.30;99.90
16267;DHT22;8241;48.786;9.250;2023-10-31T08:11:51;11.30;99.90
16267;DHT22;8241;48.786;9.250;2023-10-31T08:14:24;11.30;99.90
16267;DHT22;8241;48.786;9.250;2023-10-31T08:16:51;11.40;99.90
16267;DHT22;8241;48.786;9.250;2023-10-31T08:19:21;11.50;99.90
16267;DHT22;8241;48.786;9.250;2023-10-31T08:21:48;11.50;99.90
16267;DHT22;8241;48.786;9.250;2023-10-31T08:24:19;11.50;99.90
16267;DHT22;8241;48.786;9.250;2023-10-31T08:26:46;11.60;99.90
16267;DHT22;8241;48.786;9.250;2023-10-31T08:29:13;11.80;99.90
16267;DHT22;8241;48.786;9.250;2023-10-31T08:34:08;11.80;99.90
16267;DHT22;8241;48.786;9.250;2023-10-31T08:39:04;11.90;99.90
16267;DHT22;8241;48.786;9.250;2023-10-31T08:46:30;12.10;99.90
16267;DHT22;8241;48.786;9.250;2023-10-31T08:48:57;12.40;99.90
16267;DHT22;8241;48.786;9.250;2023-10-31T08:51:24;12.40;99.90
16267;DHT22;8241;48.786;9.250;2023-10-31T08:53:50;12.40;99.90
16267;DHT22;8241;48.786;9.250;2023-10-31T08:56:17;12.50;99.90
16267;DHT22;8241;48.786;9.250;2023-10-31T08:58:46;12.50;99.90
16267;DHT22;8241;48.786;9.250;2023-10-31T09:01:13;12.60;99.90
16267;DHT22;8241;48.786;9.250;2023-10-31T09:03:40;12.70;99.90
16267;DHT22;8241;48.786;9.250;2023-10-31T09:06:07;12.80;99.90
16267;DHT22;8241;48.786;9.250;2023-10-31T09:08:34;13.00;99.90
16267;DHT22;8241;48.786;9.250;2023-10-31T09:11:03;13.10;99.90
16267;DHT22;8241;48.786;9.250;2023-10-31T09:13:30;13.20;99.90
16267;DHT22;8241;48.786;9.250;2023-10-31T09:15:59;13.40;99.90
16267;DHT22;8241;48.786;9.250;2023-10-31T09:18:26;13.40;99.90
16267;DHT22;8241;48.786;9.250;2023-10-31T09:20:53;13.40;99.90
16267;DHT22;8241;48.786;9.250;2023-10-31T09:23:20;13.60;99.90
16267;DHT22;8241;48.786;9.250;2023-10-31T09:25:54;13.80;99.90
16267;DHT22;8241;48.786;9.250;2023-10-31T09:30:47;13.80;99.90
16267;DHT22;8241;48.786;9.250;2023-10-31T09:33:19;14.30;99.90
16267;DHT22;8241;48.786;9.250;2023-10-31T09:35:55;15.00;99.90
16267;DHT22;8241;48.786;9.250;2023-10-31T09:38:22;15.90;99.90
16267;DHT22;8241;48.786;9.250;2023-10-31T09:40:49;16.80;99.90
16267;DHT22;8241;48.786;9.250;2023-10-31T09:43:16;17.30;99.90
16267;DHT22;8241;48.786;9.250;2023-10-31T09:45:43;17.50;99.90
16267;DHT22;8241;48.786;9.250;2023-10-31T09:48:11;17.60;99.90
16267;DHT22;8241;48.786;9.250;2023-10-31T09:50:39;17.50;99.90
16267;DHT22;8241;48.786;9.250;2023-10-31T09:53:07;17.30;99.90
16267;DHT22;8241;48.786;9.250;2023-10-31T09:55:35;17.10;99.90
16267;DHT22;8241;48.786;9.250;2023-10-31T09:58:03;16.80;99.90
16267;DHT22;8241;48.786;9.250;2023-10-31T10:00:30;16.70;99.90
16267;DHT22;8241;48.786;9.250;2023-10-31T10:02:57;16.60;99.90
16267;DHT22;8241;48.786;9.250;2023-10-31T10:05:25;16.30;99.90
16267;DHT22;8241;48.786;9.250;2023-10-31T10:07:56;15.90;99.90
16267;DHT22;8241;48.786;9.250;2023-10-31T10:10:23;15.30;99.90
16267;DHT22;8241;48.786;9.250;2023-10-31T10:12:51;14.70;99.90
16267;DHT22;8241;48.786;9.250;2023-10-31T10:15:18;14.50;99.90
16267;DHT22;8241;48.786;9.250;2023-10-31T10:17:48;14.40;99.90
16267;DHT22;8241;48.786;9.250;2023-10-31T10:20:15;14.30;99.90
16267;DHT22;8241;48.786;9.250;2023-10-31T10:22:43;14.10;99.90
16267;DHT22;8241;48.786;9.250;2023-10-31T10:25:15;14.00;99.90
16267;DHT22;8241;48.786;9.250;2023-10-31T10:27:42;13.80;99.90
16267;DHT22;8241;48.786;9.250;2023-10-31T10:30:10;13.80;99.90
16267;DHT22;8241;48.786;9.250;2023-10-31T10:32:37;13.70;99.90
16267;DHT22;8241;48.786;9.250;2023-10-31T10:35:10;13.70;99.90
16267;DHT22;8241;48.786;9.250;2023-10-31T10:37:38;13.70;99.90
16267;DHT22;8241;48.786;9.250;2023-10-31T10:40:07;13.80;99.90
16267;DHT22;8241;48.786;9.250;2023-10-31T10:42:42;13.70;99.90
16267;DHT22;8241;48.786;9.250;2023-10-31T10:45:16;13.70;99.90
16267;DHT22;8241;48.786;9.250;2023-10-31T10:47:47;13.70;99.90
16267;DHT22;8241;48.786;9.250;2023-10-31T10:50:18;13.80;99.90
16267;DHT22;8241;48.786;9.250;2023-10-31T10:52:49;13.70;99.90
16267;DHT22;8241;48.786;9.250;2023-10-31T10:55:20;13.60;99.90
16267;DHT22;8241;48.786;9.250;2023-10-31T10:57:56;13.60;99.90
16267;DHT22;8241;48.786;9.250;2023-10-31T11:00:26;13.60;99.90
16267;DHT22;8241;48.786;9.250;2023-10-31T11:02:55;13.60;99.90
16267;DHT22;8241;48.786;9.250;2023-10-31T11:05:23;13.50;99.90
16267;DHT22;8241;48.786;9.250;2023-10-31T11:07:52;13.40;99.90
16267;DHT22;8241;48.786;9.250;2023-10-31T11:10:21;13.50;99.90
16267;DHT22;8241;48.786;9.250;2023-10-31T11:12:49;13.60;99.90
16267;DHT22;8241;48.786;9.250;2023-10-31T11:15:18;13.70;99.90
16267;DHT22;8241;48.786;9.250;2023-10-31T11:17:46;13.90;99.90
16267;DHT22;8241;48.786;9.250;2023-10-31T11:20:15;13.90;99.90
16267;DHT22;8241;48.786;9.250;2023-10-31T11:22:43;14.00;99.90
16267;DHT22;8241;48.786;9.250;2023-10-31T11:25:13;14.00;99.90
16267;DHT22;8241;48.786;9.250;2023-10-31T11:27:40;14.00;99.90
16267;DHT22;8241;48.786;9.250;2023-10-31T11:30:21;14.00;99.90
16267;DHT22;8241;48.786;9.250;2023-10-31T11:32:48;14.00;99.90
16267;DHT22;8241;48.786;9.250;2023-10-31T11:35:16;14.10;99.90
16267;DHT22;8241;48.786;9.250;2023-10-31T11:37:44;14.10;99.90
16267;DHT22;8241;48.786;9.250;2023-10-31T11:40:18;14.00;99.90
16267;DHT22;8241;48.786;9.250;2023-10-31T11:42:48;13.90;99.90
16267;DHT22;8241;48.786;9.250;2023-10-31T11:45:34;13.80;99.90
16267;DHT22;8241;48.786;9.250;2023-10-31T11:48:05;13.70;99.90
16267;DHT22;8241;48.786;9.250;2023-10-31T11:50:34;13.60;99.90
16267;DHT22;8241;48.786;9.250;2023-10-31T11:53:06;13.50;99.90
16267;DHT22;8241;48.786;9.250;2023-10-31T11:55:34;13.50;99.90
16267;DHT22;8241;48.786;9.250;2023-10-31T11:58:16;13.40;99.90
16267;DHT22;8241;48.786;9.250;2023-10-31T12:00:49;13.40;99.90
16267;DHT22;8241;48.786;9.250;2023-10-31T12:03:17;13.30;99.90
16267;DHT22;8241;48.786;9.250;2023-10-31T12:05:52;13.30;99.90
16267;DHT22;8241;48.786;9.250;2023-10-31T12:08:25;13.40;99.90
16267;DHT22;8241;48.786;9.250;2023-10-31T12:11:03;13.40;99.90
16267;DHT22;8241;48.786;9.250;2023-10-31T12:13:30;13.50;99.90
16267;DHT22;8241;48.786;9.250;2023-10-31T12:15:58;13.40;99.90
16267;DHT22;8241;48.786;9.250;2023-10-31T12:18:26;13.50;99.90
16267;DHT22;8241;48.786;9.250;2023-10-31T12:20:53;13.50;99.90
16267;DHT22;8241;48.786;9.250;2023-10-31T12:23:20;13.50;99.90
16267;DHT22;8241;48.786;9.250;2023-10-31T12:25:47;13.50;99.90
16267;DHT22;8241;48.786;9.250;2023-10-31T12:28:17;13.60;99.90
16267;DHT22;8241;48.786;9.250;2023-10-31T12:30:46;13.70;99.90
16267;DHT22;8241;48.786;9.250;2023-10-31T12:33:14;13.70;99.90
16267;DHT22;8241;48.786;9.250;2023-10-31T12:35:42;13.70;99.90
16267;DHT22;8241;48.786;9.250;2023-10-31T12:38:10;13.70;99.90
16267;DHT22;8241;48.786;9.250;2023-10-31T12:40:37;13.70;99.90
16267;DHT22;8241;48.786;9.250;2023-10-31T12:43:04;13.60;99.90
